METAR AND TAF INFORMATION
METAR FOR KMCE
ADDS - METARS form results

(1221 UTC 24 January 2019)
Data provider http://aviationweather.gov/metar/data/
 
METAR text: KMCE 241215Z AUTO 11003KT 3SM BR CLR 03/03 A3028 RMK AO2 T00280028
Conditions at: KMCE (MERCED , CA, US) observed 1215 UTC 24 January 2019
Temperature: 2.8°C (37°F)
Dewpoint: 2.8°C (37°F) [RH = 100%]
Pressure (altimeter): 30.28 inches Hg (1025.5 mb)
Winds: from the ESE (110 degrees) at 3 MPH (3 knots; 1.5 m/s)
Visibility: 3 miles ( 5 km)
Ceiling: at least 12,000 feet AGL
Clouds: sky clear below 12,000 feet AGL
Weather: BR  (mist)

METAR text: KMCE 241206Z AUTO 14003KT 1 3/4SM BR CLR 02/02 A3028 RMK AO2 T00220022
Conditions at: KMCE (MERCED , CA, US) observed 1206 UTC 24 January 2019
Temperature: 2.2°C (36°F)
Dewpoint: 2.2°C (36°F) [RH = 100%]
Pressure (altimeter): 30.28 inches Hg (1025.5 mb)
Winds: from the SE (140 degrees) at 3 MPH (3 knots; 1.5 m/s)
Visibility: 1.75 miles (2.82 km)
Ceiling: at least 12,000 feet AGL
Clouds: sky clear below 12,000 feet AGL
Weather: BR  (mist)

METAR text: KMCE 241153Z AUTO 12003KT 5SM BR CLR 02/02 A3028 RMK AO2 SLP254 I1000 I6000 T00220022 10067 20022 56007
Conditions at: KMCE (MERCED , CA, US) observed 1153 UTC 24 January 2019
Temperature: 2.2°C (36°F)
Dewpoint: 2.2°C (36°F) [RH = 100%]
Pressure (altimeter): 30.28 inches Hg (1025.5 mb)
[Sea-level pressure: 1025.4 mb]
Winds: from the ESE (120 degrees) at 3 MPH (3 knots; 1.5 m/s)
Visibility: 5 miles ( 8 km)
Ceiling: at least 12,000 feet AGL
Clouds: sky clear below 12,000 feet AGL
Weather: BR  (mist)

METAR text: KMCE 241128Z AUTO 09003KT 3SM BR CLR 02/02 A3028 RMK AO2 I1000 T00220017
Conditions at: KMCE (MERCED , CA, US) observed 1128 UTC 24 January 2019
Temperature: 2.2°C (36°F)
Dewpoint: 1.7°C (35°F) [RH = 96%]
Pressure (altimeter): 30.28 inches Hg (1025.5 mb)
Winds: from the E (90 degrees) at 3 MPH (3 knots; 1.5 m/s)
Visibility: 3 miles ( 5 km)
Ceiling: at least 12,000 feet AGL
Clouds: sky clear below 12,000 feet AGL
Weather: BR  (mist)

Forecast for: KMCE (MERCED , CA, US)
Text: KMCE 241120Z 2412/2512 00000KT 3SM BR SKC
Forecast period: 1200 to 1900 UTC 24 January 2019
Forecast type: FROM: standard forecast or significant change
Winds: calm
Visibility: 3 miles (5 km)
Clouds: clear skies
Weather: BR  (mist)
Text: TEMPO 2412/2416 2SM BR SCT003
Forecast period: 1200 to 1600 UTC 24 January 2019
Forecast type: TEMPORARY: The following changes expected for less than half the time period
Visibility: 2.00 miles (3.22 km)
Ceiling: at least 12,000 feet AGL
Clouds: scattered clouds at 300 feet AGL
Weather: BR  (mist)
Text: FM241900 VRB03KT P6SM FEW250
Forecast period: 1900 UTC 24 January 2019 to 1200 UTC 25 January 2019
Forecast type: FROM: standard forecast or significant change
Winds: variable direction winds at 3 MPH (3 knots; 1.5 m/s)
Visibility: 6 or more miles 10+ km)
Ceiling: at least 12,000 feet AGL
Clouds: few clouds at 25000 feet AGL
Weather: no significant weather forecast for this period

 AIRPORT MAP

Esri Leaflet Quickstart
 RUNWAY INFORMATION
Runway 12 Runway length 5903 ft Runway width 150 ft
Runway elevation 155 ft Runway displaced threshold 0 ft Runway heading 139
Runway 30 Runway length 5903 ft Runway width 150 ft
Runway elevation 155 ft Runway displaced threshold 0 ft Runway heading 319

 AIRPORT FREQUENCIES
Type A/D Name NORCAL APP Frequency 120.95 MHZ
Type ASOS Name ASOS Frequency 132.175 MHZ
Type UNIC Name CTAF/UNICO Frequency 122.7 MHZ

 AIRPORT NEAR NAVIGATION AIDS



Powered by Virtual Airlines Manager [v2.6.2]